createdAt,value
2019-01-21T00:00:26.036Z,101909.78
2019-01-21T00:02:54.654Z,101912.93
2019-01-21T00:05:23.410Z,101915.93
2019-01-21T00:07:52.171Z,101911.23
2019-01-21T00:10:22.102Z,101913.88
2019-01-21T00:12:51.904Z,101917.11
2019-01-21T00:15:21.936Z,101912.49
2019-01-21T00:17:50.539Z,101917.09
2019-01-21T00:20:19.554Z,101917.20
2019-01-21T00:22:48.380Z,101915.77
2019-01-21T00:25:16.992Z,101910.48
2019-01-21T00:27:45.555Z,101913.58
2019-01-21T00:30:14.186Z,101908.92
2019-01-21T00:32:43.233Z,101911.87
2019-01-21T00:35:11.945Z,101913.91
2019-01-21T00:37:40.554Z,101909.81
2019-01-21T00:40:32.726Z,101912.11
2019-01-21T00:43:01.289Z,101908.72
2019-01-21T00:45:29.937Z,101906.08
2019-01-21T00:47:58.552Z,101912.69
2019-01-21T00:50:27.264Z,101909.40
2019-01-21T00:52:56.080Z,101909.53
2019-01-21T00:55:24.692Z,101904.42
2019-01-21T00:57:56.723Z,101901.61
2019-01-21T01:00:26.534Z,101906.97
2019-01-21T01:02:55.592Z,101906.30
2019-01-21T01:05:24.575Z,101904.45
2019-01-21T01:07:56.170Z,101912.05
2019-01-21T01:10:24.729Z,101910.59
2019-01-21T01:12:53.345Z,101907.61
2019-01-21T01:15:24.676Z,101911.09
2019-01-21T01:17:56.265Z,101910.31
2019-01-21T01:20:24.875Z,101912.65
2019-01-21T01:22:53.502Z,101911.12
2019-01-21T01:25:22.123Z,101912.03
2019-01-21T01:27:52.707Z,101916.97
2019-01-21T01:30:21.041Z,101916.77
2019-01-21T01:32:49.787Z,101919.95
2019-01-21T01:35:18.498Z,101918.36
2019-01-21T01:37:47.208Z,101925.26
2019-01-21T01:40:17.416Z,101920.12
2019-01-21T01:42:46.469Z,101920.70
2019-01-21T01:45:20.545Z,101924.32
2019-01-21T01:47:52.003Z,101923.62
2019-01-21T01:50:22.904Z,101923.62
2019-01-21T01:52:51.009Z,101922.89
2019-01-21T01:55:19.914Z,101922.66
2019-01-21T01:57:48.868Z,101915.28
2019-01-21T02:00:17.606Z,101918.83
2019-01-21T02:02:46.171Z,101919.91
2019-01-21T02:05:14.743Z,101913.80
2019-01-21T02:07:43.376Z,101919.38
2019-01-21T02:10:14.136Z,101913.06
2019-01-21T02:12:42.862Z,101917.48
2019-01-21T02:15:13.578Z,101917.42
2019-01-21T02:17:42.348Z,101911.05
2019-01-21T02:20:14.144Z,101917.28
2019-01-21T02:22:44.661Z,101912.16
2019-01-21T02:25:13.984Z,101914.84
2019-01-21T02:28:18.665Z,101914.19
2019-01-21T02:31:10.086Z,101914.05
2019-01-21T02:34:04.545Z,101918.57
2019-01-21T02:37:05.931Z,101912.33
2019-01-21T02:39:49.908Z,101911.97
2019-01-21T02:42:30.606Z,101905.19
2019-01-21T02:45:11.547Z,101909.74
2019-01-21T02:47:43.169Z,101902.59
2019-01-21T02:50:43.863Z,101900.67
2019-01-21T02:53:24.393Z,101907.91
2019-01-21T02:56:01.813Z,101904.91
2019-01-21T02:58:45.459Z,101903.80
2019-01-21T03:01:20.115Z,101905.73
2019-01-21T03:03:56.816Z,101909.67
2019-01-21T03:06:37.406Z,101911.74
2019-01-21T03:09:30.029Z,101910.60
2019-01-21T03:12:19.825Z,101904.85
2019-01-21T03:15:15.375Z,101908.67
2019-01-21T03:18:23.432Z,101903.72
2019-01-21T03:21:28.117Z,101901.58
2019-01-21T03:24:22.612Z,101892.78
2019-01-21T03:26:56.929Z,101896.44
2019-01-21T03:29:46.671Z,101898.12
2019-01-21T03:32:35.033Z,101901.64
2019-01-21T03:35:35.300Z,101903.75
2019-01-21T03:38:18.861Z,101899.53
2019-01-21T03:41:02.275Z,101898.80
2019-01-21T03:43:53.670Z,101898.20
2019-01-21T03:46:40.162Z,101897.81
2019-01-21T03:49:11.780Z,101890.30
2019-01-21T03:52:00.185Z,101893.78
2019-01-21T03:54:30.376Z,101896.92
2019-01-21T03:57:02.273Z,101899.81
2019-01-21T03:59:42.583Z,101894.75
2019-01-21T04:02:39.180Z,101894.06
2019-01-21T04:05:26.034Z,101895.44
2019-01-21T04:08:19.323Z,101896.23
2019-01-21T04:10:56.944Z,101896.34
2019-01-21T04:13:31.089Z,101897.25
2019-01-21T04:16:20.917Z,101894.75
2019-01-21T04:18:58.744Z,101893.15
2019-01-21T04:21:52.955Z,101895.58
2019-01-21T04:24:34.125Z,101890.55
2019-01-21T04:27:11.518Z,101884.80
2019-01-21T04:30:01.131Z,101887.95
2019-01-21T04:32:41.528Z,101885.64
2019-01-21T04:35:35.498Z,101893.23
2019-01-21T04:38:19.212Z,101883.98
2019-01-21T04:41:14.717Z,101887.27
2019-01-21T04:43:58.249Z,101888.45
2019-01-21T04:46:47.751Z,101881.92
2019-01-21T04:49:37.232Z,101877.81
2019-01-21T04:52:20.954Z,101883.72
2019-01-21T04:54:59.280Z,101878.06
2019-01-21T04:57:42.740Z,101877.33
2019-01-21T05:00:17.416Z,101873.80
2019-01-21T05:02:57.962Z,101865.78
2019-01-21T05:05:44.394Z,101869.06
2019-01-21T05:08:45.054Z,101862.91
2019-01-21T05:11:37.655Z,101860.63
2019-01-21T05:14:33.120Z,101866.70
2019-01-21T05:17:51.946Z,101865.91
2019-01-21T05:20:38.417Z,101866.45
2019-01-21T05:23:10.062Z,101859.48
2019-01-21T05:25:41.676Z,101860.61
2019-01-21T05:28:31.371Z,101871.21
2019-01-21T05:31:26.468Z,101871.30
2019-01-21T05:34:14.836Z,101867.01
2019-01-21T05:37:10.924Z,101869.88
2019-01-21T05:39:45.231Z,101866.05
2019-01-21T05:42:43.620Z,101864.64
2019-01-21T05:45:30.622Z,101860.19
2019-01-21T05:48:26.555Z,101869.76
2019-01-21T05:51:27.967Z,101866.61
2019-01-21T05:54:14.777Z,101870.02
2019-01-21T05:56:57.734Z,101861.95
2019-01-21T05:59:35.298Z,101865.43
2019-01-21T06:02:26.869Z,101871.41
2019-01-21T06:05:15.079Z,101868.88
2019-01-21T06:07:49.423Z,101868.39
2019-01-21T06:10:29.821Z,101868.34
2019-01-21T06:13:19.746Z,101865.06
2019-01-21T06:15:52.491Z,101864.91
2019-01-21T06:18:58.362Z,101869.33
2019-01-21T06:21:38.801Z,101866.47
2019-01-21T06:24:22.249Z,101867.70
2019-01-21T06:26:59.873Z,101873.69
2019-01-21T06:29:40.299Z,101875.86
2019-01-21T06:32:39.097Z,101876.14
2019-01-21T06:35:55.899Z,101878.52
2019-01-21T06:38:36.655Z,101885.55
2019-01-21T06:41:23.833Z,101883.89
2019-01-21T06:44:19.135Z,101889.85
2019-01-21T06:47:10.242Z,101888.08
2019-01-21T06:49:53.493Z,101891.30
2019-01-21T06:52:25.095Z,101893.93
2019-01-21T06:55:13.208Z,101897.03
2019-01-21T06:58:25.314Z,101895.66
2019-01-21T07:01:13.664Z,101903.03
2019-01-21T07:04:28.787Z,101903.39
2019-01-21T07:07:00.409Z,101910.60
2019-01-21T07:09:47.272Z,101908.55
2019-01-21T07:12:36.757Z,101908.11
2019-01-21T07:15:35.104Z,101908.70
2019-01-21T07:18:12.493Z,101900.75
2019-01-21T07:21:07.610Z,101901.32
2019-01-21T07:23:51.565Z,101902.03
2019-01-21T07:26:31.863Z,101905.52
2019-01-21T07:29:15.618Z,101906.38
2019-01-21T07:31:52.859Z,101905.92
2019-01-21T07:34:44.885Z,101904.42
2019-01-21T07:37:28.851Z,101904.30
2019-01-21T07:40:23.991Z,101903.98
2019-01-21T07:43:01.322Z,101906.86
2019-01-21T07:45:41.363Z,101908.61
2019-01-21T07:48:15.067Z,101908.55
2019-01-21T07:51:04.880Z,101911.73
2019-01-21T07:53:48.375Z,101914.42
2019-01-21T07:56:28.858Z,101919.19
2019-01-21T07:59:16.535Z,101923.54
2019-01-21T08:02:06.082Z,101924.11
2019-01-21T08:04:54.468Z,101922.34
2019-01-21T08:07:31.885Z,101920.99
2019-01-21T08:10:48.300Z,101920.23
2019-01-21T08:13:46.127Z,101917.28
2019-01-21T08:16:23.750Z,101912.97
2019-01-21T08:19:29.436Z,101924.37
2019-01-21T08:22:04.203Z,101925.19
2019-01-21T08:24:38.739Z,101915.48
2019-01-21T08:27:28.154Z,101922.78
2019-01-21T08:30:18.237Z,101904.35
2019-01-21T08:33:06.471Z,101903.94
2019-01-21T08:35:47.220Z,101899.56
2019-01-21T08:38:33.654Z,101894.91
2019-01-21T08:41:20.391Z,101900.05
2019-01-21T08:44:08.833Z,101904.35
2019-01-21T08:46:58.791Z,101906.08
2019-01-21T08:49:50.937Z,101911.73
2019-01-21T08:52:41.890Z,101904.45
2019-01-21T08:55:43.003Z,101914.09
2019-01-21T08:58:48.856Z,101918.58
2019-01-21T09:01:32.344Z,101915.72
2019-01-21T09:04:38.479Z,101919.19
2019-01-21T09:07:16.086Z,101933.78
2019-01-21T09:09:56.399Z,101935.03
2019-01-21T09:12:37.143Z,101924.98
2019-01-21T09:15:24.188Z,101921.21
2019-01-21T09:18:20.343Z,101926.94
2019-01-21T09:20:58.072Z,101929.65
2019-01-21T09:23:38.497Z,101935.37
2019-01-21T09:26:30.586Z,101935.45
2019-01-21T09:29:17.194Z,101933.43
2019-01-21T09:31:54.001Z,101930.17
2019-01-21T09:34:25.625Z,101928.15
2019-01-21T09:37:23.451Z,101924.52
2019-01-21T09:40:07.074Z,101921.25
2019-01-21T09:42:44.389Z,101915.47
2019-01-21T09:45:36.497Z,101919.28
2019-01-21T09:48:06.785Z,101914.16
2019-01-21T09:50:38.906Z,101913.88
2019-01-21T09:53:10.843Z,101915.84
2019-01-21T09:55:40.272Z,101913.30
2019-01-21T09:58:11.745Z,101909.08
2019-01-21T10:00:43.426Z,101898.28
2019-01-21T10:03:15.619Z,101903.25
2019-01-21T10:05:49.785Z,101902.49
2019-01-21T10:08:38.342Z,101898.40
2019-01-21T10:11:15.657Z,101901.95
2019-01-21T10:14:04.245Z,101904.91
2019-01-21T10:16:44.531Z,101900.75
2019-01-21T10:19:18.786Z,101903.70
2019-01-21T10:22:24.280Z,101896.39
2019-01-21T10:25:05.119Z,101897.19
2019-01-21T10:28:10.512Z,101891.69
2019-01-21T10:30:42.142Z,101887.10
2019-01-21T10:33:19.850Z,101880.63
2019-01-21T10:36:08.435Z,101881.62
2019-01-21T10:39:02.589Z,101891.58
2019-01-21T10:42:10.084Z,101877.76
2019-01-21T10:44:50.058Z,101882.97
2019-01-21T10:47:54.834Z,101876.73
2019-01-21T10:50:38.492Z,101880.77
2019-01-21T10:53:37.360Z,101878.44
2019-01-21T10:56:08.981Z,101870.22
2019-01-21T10:59:12.636Z,101865.03
2019-01-21T11:02:38.226Z,101861.70
2019-01-21T11:05:28.061Z,101854.92
2019-01-21T11:08:16.560Z,101843.91
2019-01-21T11:10:48.170Z,101848.39
2019-01-21T11:13:52.024Z,101841.45
2019-01-21T11:16:44.806Z,101844.89
2019-01-21T11:19:48.598Z,101839.70
2019-01-21T11:22:20.359Z,101834.30
2019-01-21T11:25:23.737Z,101835.06
2019-01-21T11:28:07.358Z,101825.64
2019-01-21T11:30:59.401Z,101830.11
2019-01-21T11:33:36.950Z,101821.10
2019-01-21T11:36:37.413Z,101813.45
2019-01-21T11:39:23.987Z,101801.75
2019-01-21T11:42:01.363Z,101802.86
2019-01-21T11:45:11.697Z,101800.66
2019-01-21T11:47:49.785Z,101790.27
2019-01-21T11:50:44.932Z,101785.13
2019-01-21T11:53:19.316Z,101779.32
2019-01-21T11:55:50.939Z,101776.80
2019-01-21T11:59:00.798Z,101775.70
2019-01-21T12:01:41.379Z,101777.76
2019-01-21T12:04:16.064Z,101759.65
2019-01-21T12:06:59.415Z,101756.30
2019-01-21T12:09:48.809Z,101757.19
2019-01-21T12:12:39.187Z,101761.41
2019-01-21T12:15:34.555Z,101763.58
2019-01-21T12:18:26.804Z,101765.47
2019-01-21T12:21:34.394Z,101766.04
2019-01-21T12:24:26.902Z,101768.30
2019-01-21T12:27:04.432Z,101761.14
2019-01-21T12:29:44.629Z,101761.69
2019-01-21T12:32:54.771Z,101770.91
2019-01-21T12:35:38.752Z,101780.11
2019-01-21T12:38:19.048Z,101766.67
2019-01-21T12:41:12.710Z,101763.84
2019-01-21T12:44:21.705Z,101757.80
2019-01-21T12:47:04.975Z,101755.91
2019-01-21T12:49:59.472Z,101753.78
2019-01-21T12:52:33.626Z,101748.28
2019-01-21T12:55:27.073Z,101750.64
2019-01-21T12:58:08.786Z,101751.56
2019-01-21T13:01:01.668Z,101762.09
2019-01-21T13:04:08.195Z,101756.26
2019-01-21T13:06:54.943Z,101752.55
2019-01-21T13:09:32.765Z,101748.44
2019-01-21T13:12:19.405Z,101746.69
2019-01-21T13:14:59.906Z,101741.31
2019-01-21T13:17:37.369Z,101731.24
2019-01-21T13:20:30.720Z,101724.11
2019-01-21T13:23:05.322Z,101729.11
2019-01-21T13:25:49.004Z,101722.03
2019-01-21T13:28:23.611Z,101719.34
2019-01-21T13:30:55.324Z,101719.97
2019-01-21T13:33:45.041Z,101711.47
2019-01-21T13:36:25.320Z,101718.22
2019-01-21T13:39:14.613Z,101702.62
2019-01-21T13:41:48.947Z,101697.50
2019-01-21T13:44:29.263Z,101686.45
2019-01-21T13:47:13.164Z,101684.50
2019-01-21T13:50:00.261Z,101688.02
2019-01-21T13:52:37.581Z,101681.20
2019-01-21T13:55:15.201Z,101670.25
2019-01-21T13:58:20.606Z,101678.13
2019-01-21T14:01:23.626Z,101674.70
2019-01-21T14:04:28.316Z,101672.47
2019-01-21T14:07:17.866Z,101663.79
2019-01-21T14:09:58.254Z,101667.17
2019-01-21T14:12:38.445Z,101667.92
2019-01-21T14:15:37.573Z,101664.98
2019-01-21T14:18:18.073Z,101657.16
2019-01-21T14:20:58.173Z,101648.70
2019-01-21T14:23:32.573Z,101652.05
2019-01-21T14:26:35.434Z,101651.61
2019-01-21T14:29:55.070Z,101650.75
2019-01-21T14:32:26.760Z,101642.09
2019-01-21T14:35:01.428Z,101638.23
2019-01-21T14:37:58.722Z,101638.09
2019-01-21T14:40:45.560Z,101641.65
2019-01-21T14:43:35.736Z,101630.86
2019-01-21T14:46:31.223Z,101632.05
2019-01-21T14:49:09.114Z,101620.66
2019-01-21T14:51:43.601Z,101627.59
2019-01-21T14:54:18.383Z,101623.63
2019-01-21T14:56:59.394Z,101619.89
2019-01-21T14:59:39.692Z,101617.78
2019-01-21T15:02:16.860Z,101614.98
2019-01-21T15:05:00.352Z,101610.08
2019-01-21T15:07:38.009Z,101615.19
2019-01-21T15:10:32.304Z,101610.20
2019-01-21T15:13:22.847Z,101608.36
2019-01-21T15:16:00.145Z,101607.67
2019-01-21T15:18:34.744Z,101605.02
2019-01-21T15:21:09.165Z,101603.75
2019-01-21T15:23:43.686Z,101604.29
2019-01-21T15:26:24.471Z,101604.44
2019-01-21T15:29:21.987Z,101602.25
2019-01-21T15:32:24.547Z,101602.89
2019-01-21T15:35:10.633Z,101597.83
2019-01-21T15:37:47.470Z,101600.76
2019-01-21T15:40:40.024Z,101590.95
2019-01-21T15:43:21.802Z,101595.28
2019-01-21T15:45:56.244Z,101589.80
2019-01-21T15:48:27.851Z,101593.74
2019-01-21T15:51:14.174Z,101588.84
2019-01-21T15:53:52.372Z,101593.88
2019-01-21T15:56:32.973Z,101588.06
2019-01-21T15:59:10.543Z,101583.80
2019-01-21T16:01:45.225Z,101585.73
2019-01-21T16:04:19.949Z,101581.78
2019-01-21T16:07:18.558Z,101584.34
2019-01-21T16:10:02.244Z,101583.80
2019-01-21T16:12:58.652Z,101591.20
2019-01-21T16:15:38.753Z,101591.56
2019-01-21T16:18:30.097Z,101590.70
2019-01-21T16:21:13.850Z,101589.55
2019-01-21T16:24:06.886Z,101589.91
2019-01-21T16:26:38.515Z,101589.69
2019-01-21T16:29:13.030Z,101596.18
2019-01-21T16:31:42.568Z,101593.19
2019-01-21T16:34:32.205Z,101583.34
2019-01-21T16:37:18.752Z,101584.27
2019-01-21T16:39:56.741Z,101583.89
2019-01-21T16:42:27.044Z,101586.31
2019-01-21T16:44:55.614Z,101588.31
2019-01-21T16:47:24.220Z,101590.41
2019-01-21T16:49:56.759Z,101595.19
2019-01-21T16:52:25.402Z,101588.98
2019-01-21T16:54:53.971Z,101580.36
2019-01-21T16:57:22.601Z,101584.62
2019-01-21T16:59:53.467Z,101577.71
2019-01-21T17:02:25.058Z,101574.17
2019-01-21T17:04:55.591Z,101563.90
2019-01-21T17:07:24.168Z,101556.55
2019-01-21T17:09:52.818Z,101551.83
2019-01-21T17:12:24.105Z,101536.36
2019-01-21T17:14:57.457Z,101535.28
2019-01-21T17:17:24.545Z,101538.56
2019-01-21T17:19:55.820Z,101523.19
2019-01-21T17:22:27.328Z,101527.61
2019-01-21T17:24:58.598Z,101530.09
2019-01-21T17:27:30.384Z,101527.11
2019-01-21T17:29:58.992Z,101526.28
2019-01-21T17:32:30.572Z,101528.28
2019-01-21T17:35:01.912Z,101528.02
2019-01-21T17:37:30.789Z,101518.64
2019-01-21T17:39:59.555Z,101505.78
2019-01-21T17:42:28.149Z,101500.28
2019-01-21T17:44:56.871Z,101495.89
2019-01-21T17:47:25.435Z,101497.86
2019-01-21T17:49:54.441Z,101504.95
2019-01-21T17:52:24.879Z,101508.80
2019-01-21T17:54:53.829Z,101513.31
2019-01-21T17:57:25.156Z,101525.28
2019-01-21T17:59:56.790Z,101536.22
2019-01-21T18:02:28.335Z,101546.41
2019-01-21T18:04:57.213Z,101550.12
2019-01-21T18:07:29.319Z,101565.03
2019-01-21T18:10:01.009Z,101561.23
2019-01-21T18:12:30.034Z,101548.08
2019-01-21T18:14:58.669Z,101547.25
2019-01-21T18:17:27.265Z,101535.15
2019-01-21T18:19:56.522Z,101531.70
2019-01-21T18:22:25.775Z,101538.27
2019-01-21T18:24:54.686Z,101536.34
2019-01-21T18:27:26.332Z,101543.72
2019-01-21T18:29:57.903Z,101540.73
2019-01-21T18:32:26.463Z,101535.28
2019-01-21T18:34:57.772Z,101527.20
2019-01-21T18:37:29.031Z,101523.35
2019-01-21T18:39:57.708Z,101516.72
2019-01-21T18:42:29.060Z,101512.27
2019-01-21T18:44:57.879Z,101524.22
2019-01-21T18:47:26.510Z,101513.27
2019-01-21T18:49:58.081Z,101517.28
2019-01-21T18:52:26.690Z,101513.84
2019-01-21T18:54:55.260Z,101513.23
2019-01-21T18:57:26.683Z,101511.58
2019-01-21T18:59:55.251Z,101507.73
2019-01-21T19:02:26.682Z,101507.15
2019-01-21T19:04:58.235Z,101509.55
2019-01-21T19:07:29.521Z,101515.50
2019-01-21T19:09:58.080Z,101502.51
2019-01-21T19:12:29.317Z,101506.56
2019-01-21T19:14:57.927Z,101501.79
2019-01-21T19:17:26.494Z,101500.45
2019-01-21T19:19:55.165Z,101501.09
2019-01-21T19:22:29.985Z,101500.47
2019-01-21T19:25:01.232Z,101510.95
2019-01-21T19:27:29.949Z,101504.05
2019-01-21T19:30:01.872Z,101504.67
2019-01-21T19:32:33.517Z,101499.17
2019-01-21T19:35:02.473Z,101500.89
2019-01-21T19:37:31.032Z,101501.75
2019-01-21T19:40:02.268Z,101507.28
2019-01-21T19:42:30.887Z,101501.05
2019-01-21T19:44:59.448Z,101503.92
2019-01-21T19:47:28.016Z,101500.89
2019-01-21T19:49:56.593Z,101500.62
2019-01-21T19:52:25.418Z,101501.31
2019-01-21T19:54:54.131Z,101501.23
2019-01-21T19:57:26.514Z,101499.89
2019-01-21T19:59:55.172Z,101500.58
2019-01-21T20:02:26.517Z,101492.54
2019-01-21T20:04:55.678Z,101481.58
2019-01-21T20:07:27.493Z,101468.18
2019-01-21T20:09:56.136Z,101474.26
2019-01-21T20:12:25.028Z,101476.91
2019-01-21T20:14:55.109Z,101481.82
2019-01-21T20:17:26.527Z,101483.09
2019-01-21T20:19:55.130Z,101479.20
2019-01-21T20:22:27.067Z,101474.26
2019-01-21T20:24:55.694Z,101476.05
2019-01-21T20:27:27.263Z,101479.27
2019-01-21T20:29:56.396Z,101474.77
2019-01-21T20:32:25.472Z,101472.36
2019-01-21T20:34:57.005Z,101471.19
2019-01-21T20:37:28.453Z,101467.66
2019-01-21T20:39:57.135Z,101455.56
2019-01-21T20:42:25.864Z,101459.38
2019-01-21T20:44:57.672Z,101460.27
2019-01-21T20:47:29.200Z,101455.39
2019-01-21T20:49:58.256Z,101467.08
2019-01-21T20:52:26.905Z,101465.36
2019-01-21T20:54:55.725Z,101459.11
2019-01-21T20:57:24.574Z,101456.56
2019-01-21T20:59:55.885Z,101454.02
2019-01-21T21:02:24.443Z,101453.09
2019-01-21T21:04:56.019Z,101455.19
2019-01-21T21:07:27.799Z,101449.08
2019-01-21T21:09:56.587Z,101446.80
2019-01-21T21:12:25.880Z,101451.16
2019-01-21T21:14:58.426Z,101449.34
2019-01-21T21:17:27.201Z,101449.34
2019-01-21T21:19:55.997Z,101441.93
2019-01-21T21:22:24.773Z,101442.92
2019-01-21T21:24:53.723Z,101443.58
2019-01-21T21:27:22.749Z,101449.01
2019-01-21T21:29:52.554Z,101443.45
2019-01-21T21:32:23.462Z,101439.22
2019-01-21T21:34:56.794Z,101441.62
2019-01-21T21:37:28.271Z,101442.31
2019-01-21T21:40:00.875Z,101439.08
2019-01-21T21:42:29.793Z,101438.46
2019-01-21T21:44:58.610Z,101438.56
2019-01-21T21:47:27.417Z,101426.92
2019-01-21T21:49:56.231Z,101426.06
2019-01-21T21:52:27.928Z,101431.59
2019-01-21T21:54:59.006Z,101434.27
2019-01-21T21:57:27.791Z,101426.06
2019-01-21T21:59:56.566Z,101425.20
2019-01-21T22:02:25.761Z,101422.70
2019-01-21T22:04:54.979Z,101415.11
2019-01-21T22:07:25.696Z,101412.42
2019-01-21T22:09:54.459Z,101411.95
2019-01-21T22:12:23.348Z,101404.91
2019-01-21T22:14:54.927Z,101402.53
2019-01-21T22:17:25.516Z,101398.52
2019-01-21T22:19:54.387Z,101399.82
2019-01-21T22:22:24.636Z,101393.06
2019-01-21T22:24:56.292Z,101389.14
2019-01-21T22:27:24.921Z,101386.19
2019-01-21T22:29:55.228Z,101388.66
2019-01-21T22:32:26.540Z,101385.30
2019-01-21T22:34:55.551Z,101387.08
2019-01-21T22:37:24.200Z,101387.87
2019-01-21T22:39:54.372Z,101388.25
2019-01-21T22:42:24.515Z,101384.33
2019-01-21T22:44:56.217Z,101385.57
2019-01-21T22:47:24.848Z,101382.62
2019-01-21T22:49:53.585Z,101374.72
2019-01-21T22:52:22.200Z,101377.57
2019-01-21T22:54:50.876Z,101377.23
2019-01-21T22:57:19.477Z,101375.27
2019-01-21T22:59:48.083Z,101375.68
2019-01-21T23:02:16.743Z,101378.98
2019-01-21T23:04:45.728Z,101375.54
2019-01-21T23:07:14.565Z,101372.34
2019-01-21T23:09:45.936Z,101379.52
2019-01-21T23:12:14.508Z,101370.48
2019-01-21T23:14:43.081Z,101372.09
2019-01-21T23:17:11.642Z,101372.09
2019-01-21T23:19:40.624Z,101373.44
2019-01-21T23:22:09.215Z,101368.70
2019-01-21T23:24:40.544Z,101369.11
2019-01-21T23:27:09.280Z,101371.34
2019-01-21T23:29:38.589Z,101361.45
2019-01-21T23:32:07.208Z,101365.67
2019-01-21T23:34:35.774Z,101359.22
2019-01-21T23:37:04.543Z,101358.25
2019-01-21T23:39:33.111Z,101353.34
2019-01-21T23:42:05.414Z,101354.53
2019-01-21T23:44:33.999Z,101352.69
2019-01-21T23:47:02.640Z,101349.59
2019-01-21T23:49:31.515Z,101351.92
2019-01-21T23:52:03.135Z,101346.70
2019-01-21T23:54:34.710Z,101344.64
2019-01-21T23:57:06.389Z,101335.47
2019-01-21T23:59:34.952Z,101341.41
